LAS weather

McCarran International Airport
Las Vegas, Nevada, United States

Public forecast

Using degrees Fahrenheit for public forecast. Weather courtesy of forecast.io.

METAR (pilot weather report)

Retrieved 2017/07/27 02:56 UTC (1 hour ago):

KLAS 270256Z 07004KT 10SM FEW110 FEW180 SCT250 36/16 A2992 RMK AO2 SLP102 T03610156 55002

TAF (pilot weather forecast)

Forecast is more than 12 hours old.

Retrieved 2017/07/26 00:22 UTC (1 day ago):

TAF KLAS 262320Z 2700/2806 14009KT P6SM SCT120 BKN200 FM270600 VRB04KT P6SM SKC FM271500 09007KT P6SM FEW120 FM272200 13008KT P6SM SCT120